Time;durP1;ratioP1;P1;durP2;ratioP2;P2;SDS_P1;SDS_P2;PMS_P1;PMS_P2;Temp;Humidity;BMP_temperature;BMP_pressure;BME280_temperature;BME280_humidity;BME280_pressure;Samples;Min_cycle;Max_cycle;Signal;HPM_P1;HPM_P2
2022/11/30 00:00:57;;;;;;;20.83;13.50;;;;;;;7.76;100.00;102365.59;6281082;22;20437;-76
2022/11/30 00:03:24;;;;;;;18.88;13.70;;;;;;;7.73;100.00;102361.78;6279548;22;20040;-76
2022/11/30 00:05:51;;;;;;;18.42;13.98;;;;;;;7.74;100.00;102365.97;6281102;22;20023;-76
2022/11/30 00:08:18;;;;;;;23.90;12.93;;;;;;;7.71;100.00;102366.72;6253161;22;20035;-76
2022/11/30 00:10:44;;;;;;;18.45;12.07;;;;;;;7.71;100.00;102364.06;6280972;22;20087;-76
2022/11/30 00:13:11;;;;;;;16.75;12.50;;;;;;;7.73;100.00;102371.66;6280552;22;20088;-76
2022/11/30 00:15:38;;;;;;;19.65;12.38;;;;;;;7.74;100.00;102367.84;6280393;22;20024;-76
2022/11/30 00:18:04;;;;;;;16.50;12.82;;;;;;;7.75;100.00;102377.31;6280282;22;20040;-76
2022/11/30 00:20:31;;;;;;;16.77;12.45;;;;;;;7.76;100.00;102381.50;6280118;22;20047;-76
2022/11/30 00:22:57;;;;;;;17.08;12.48;;;;;;;7.77;100.00;102369.75;6280814;22;20103;-76
2022/11/30 00:25:24;;;;;;;21.25;13.50;;;;;;;7.75;100.00;102370.13;6279891;22;20190;-76
2022/11/30 00:27:51;;;;;;;17.65;12.68;;;;;;;7.76;100.00;102376.19;6281011;22;20016;-76
2022/11/30 00:30:17;;;;;;;17.10;12.90;;;;;;;7.75;100.00;102385.28;6280565;22;20019;-76
2022/11/30 00:32:44;;;;;;;16.75;12.63;;;;;;;7.75;100.00;102379.97;6252953;22;20048;-76
2022/11/30 00:35:10;;;;;;;19.10;13.15;;;;;;;7.72;100.00;102378.09;6280481;22;20066;-76
2022/11/30 00:37:37;;;;;;;19.25;13.57;;;;;;;7.70;100.00;102376.56;6280424;22;20515;-76
2022/11/30 00:40:05;;;;;;;19.50;15.00;;;;;;;7.69;100.00;102382.25;6280617;22;20424;-76
2022/11/30 00:42:31;;;;;;;21.80;13.85;;;;;;;7.67;100.00;102369.38;6279718;22;20063;-76
2022/11/30 00:44:58;;;;;;;20.70;14.15;;;;;;;7.66;100.00;102367.84;6280843;22;20519;-76
2022/11/30 00:47:24;;;;;;;18.65;15.30;;;;;;;7.64;100.00;102370.13;6279554;22;20464;-76
2022/11/30 00:49:52;;;;;;;23.08;14.90;;;;;;;7.65;100.00;102368.25;6280499;22;20074;-76
2022/11/30 00:52:19;;;;;;;20.67;14.55;;;;;;;7.62;100.00;102363.69;6280077;22;20016;-76
2022/11/30 00:54:45;;;;;;;22.42;14.13;;;;;;;7.63;100.00;102368.63;6281041;22;20091;-76
2022/11/30 00:57:12;;;;;;;22.30;14.98;;;;;;;7.60;100.00;102371.25;6280505;22;20016;-76
2022/11/30 00:59:39;;;;;;;18.30;13.98;;;;;;;7.59;100.00;102375.06;6280111;22;20450;-76
2022/11/30 01:02:05;;;;;;;21.58;15.25;;;;;;;7.58;100.00;102384.91;6279902;22;20079;-76
2022/11/30 01:04:32;;;;;;;21.42;14.43;;;;;;;7.55;100.00;102375.06;6279852;22;20016;-76
2022/11/30 01:06:58;;;;;;;19.30;14.38;;;;;;;7.54;100.00;102372.81;6280733;22;20494;-76
2022/11/30 01:09:24;;;;;;;21.15;14.50;;;;;;;7.52;100.00;102381.13;6280037;22;20040;-76
2022/11/30 01:11:51;;;;;;;18.15;14.07;;;;;;;7.49;100.00;102381.88;6280668;22;20023;-76
2022/11/30 01:14:17;;;;;;;18.48;13.23;;;;;;;7.48;100.00;102376.97;6252156;22;20020;-76
2022/11/30 01:16:44;;;;;;;20.88;14.07;;;;;;;7.46;100.00;102373.94;6280641;22;20016;-76
2022/11/30 01:19:10;;;;;;;19.17;13.77;;;;;;;7.45;100.00;102377.72;6280133;22;20024;-76
2022/11/30 01:21:37;;;;;;;20.88;13.80;;;;;;;7.45;100.00;102383.78;6280048;22;20039;-75
2022/11/30 01:24:04;;;;;;;23.85;14.40;;;;;;;7.43;100.00;102385.28;6280514;22;20016;-76
2022/11/30 01:26:30;;;;;;;21.30;14.15;;;;;;;7.42;100.00;102387.16;6279558;22;20047;-76
2022/11/30 01:28:57;;;;;;;19.00;13.13;;;;;;;7.44;100.00;102390.19;6279892;22;20403;-76
2022/11/30 01:31:24;;;;;;;19.73;14.07;;;;;;;7.45;100.00;102393.59;6279547;22;20075;-76
2022/11/30 01:33:54;;;;;;;18.40;12.93;;;;;;;7.45;100.00;102388.31;6280272;22;20020;-75
2022/11/30 01:36:24;;;;;;;16.92;13.20;;;;;;;7.44;100.00;102386.78;6279789;22;20071;-74
2022/11/30 01:38:56;;;;;;;19.33;13.60;;;;;;;7.42;100.00;102387.16;6280278;22;20016;-75
2022/11/30 01:41:24;;;;;;;18.70;14.55;;;;;;;7.40;100.00;102378.09;6279561;22;20050;-75
2022/11/30 01:43:54;;;;;;;22.10;14.80;;;;;;;7.39;100.00;102382.63;6279245;22;20084;-75
2022/11/30 01:46:25;;;;;;;21.75;15.35;;;;;;;7.40;100.00;102380.72;6279507;22;20009;-75
2022/11/30 01:49:10;;;;;;;20.05;14.25;;;;;;;7.42;100.00;102375.81;6280175;22;20418;-75
2022/11/30 01:51:47;;;;;;;23.00;15.75;;;;;;;7.40;100.00;102372.78;6280242;22;20091;-75
2022/11/30 01:54:17;;;;;;;20.60;14.75;;;;;;;7.36;100.00;102373.53;6279951;22;20017;-76
2022/11/30 01:56:49;;;;;;;20.42;14.15;;;;;;;7.34;100.00;102380.34;6280093;22;20461;-76
2022/11/30 01:59:18;;;;;;;;;;;;;;;7.35;100.00;102379.22;6279637;22;20095;-76
2022/11/30 02:01:44;;;;;;;19.38;13.48;;;;;;;7.36;100.00;102381.47;6279997;22;20053;-76
2022/11/30 02:04:22;;;;;;;17.13;13.52;;;;;;;7.38;100.00;102383.75;6279603;22;20020;-76
2022/11/30 02:06:49;;;;;;;18.08;13.73;;;;;;;7.38;100.00;102383.75;6277799;22;20089;-76
2022/11/30 02:09:18;;;;;;;19.08;13.93;;;;;;;7.35;100.00;102381.84;6279339;22;20020;-76
2022/11/30 02:11:45;;;;;;;19.67;14.25;;;;;;;7.33;100.00;102381.47;6279605;22;20017;-76
2022/11/30 02:14:42;;;;;;;20.77;14.43;;;;;;;7.33;100.00;102378.81;6278435;22;20024;-76
2022/11/30 02:17:19;;;;;;;18.30;13.98;;;;;;;7.31;100.00;102381.84;6278431;22;20342;-76
2022/11/30 02:20:07;;;;;;;17.83;14.15;;;;;;;7.30;100.00;102382.22;6279935;22;20446;-76
2022/11/30 02:22:48;;;;;;;17.05;13.18;;;;;;;7.29;100.00;102380.72;6279985;22;20012;-76
2022/11/30 02:25:29;;;;;;;18.75;13.32;;;;;;;7.26;100.00;102382.22;6280953;22;20016;-76
2022/11/30 02:28:20;;;;;;;19.30;13.07;;;;;;;7.26;100.00;102384.88;6281006;22;20059;-76
2022/11/30 02:30:51;;;;;;;19.30;13.50;;;;;;;7.25;100.00;102383.34;6281571;22;20100;-76
2022/11/30 02:33:22;;;;;;;18.85;13.25;;;;;;;7.21;100.00;102387.88;6280929;22;20019;-76
2022/11/30 02:35:52;;;;;;;19.23;13.15;;;;;;;7.22;100.00;102386.75;6281497;22;20687;-75
2022/11/30 02:38:23;;;;;;;21.13;13.38;;;;;;;7.22;100.00;102394.69;6280596;22;20038;-76
2022/11/30 02:40:49;;;;;;;18.90;13.52;;;;;;;7.21;100.00;102395.06;6281088;22;20016;-76
2022/11/30 02:43:20;;;;;;;18.85;12.20;;;;;;;7.20;100.00;102383.72;6280063;22;20151;-76
2022/11/30 02:46:12;;;;;;;22.60;13.40;;;;;;;7.19;100.00;102395.47;6281312;22;20092;-76
2022/11/30 02:48:48;;;;;;;26.52;12.38;;;;;;;7.19;100.00;102394.72;6280986;22;20569;-76
2022/11/30 02:51:18;;;;;;;19.27;13.07;;;;;;;7.18;100.00;102393.19;6280928;22;20083;-76
2022/11/30 02:53:46;;;;;;;20.52;12.55;;;;;;;7.16;100.00;102396.22;6281331;22;20095;-76
2022/11/30 02:56:13;;;;;;;17.60;12.60;;;;;;;7.16;100.00;102403.41;6280288;22;20080;-76
2022/11/30 02:58:40;;;;;;;21.52;13.30;;;;;;;7.15;100.00;102401.91;6280857;22;20075;-76
2022/11/30 03:01:06;;;;;;;17.45;12.85;;;;;;;7.12;100.00;102403.41;6281100;22;20020;-76
2022/11/30 03:03:33;;;;;;;20.30;12.75;;;;;;;7.07;100.00;102403.75;6253334;22;20019;-76
2022/11/30 03:05:59;;;;;;;25.15;13.38;;;;;;;7.07;100.00;102403.00;6281210;22;20020;-75
2022/11/30 03:08:26;;;;;;;18.70;13.20;;;;;;;7.08;100.00;102404.53;6280539;22;20091;-76
2022/11/30 03:10:52;;;;;;;19.40;13.23;;;;;;;7.08;100.00;102402.63;6280483;22;20016;-76
2022/11/30 03:13:19;;;;;;;16.25;12.35;;;;;;;7.08;100.00;102409.81;6280306;22;20511;-76
2022/11/30 03:15:46;;;;;;;16.25;12.50;;;;;;;7.08;100.00;102401.88;6281314;22;20024;-76
2022/11/30 03:18:13;;;;;;;18.10;12.18;;;;;;;7.06;100.00;102407.53;6281014;22;20012;-76
2022/11/30 03:20:41;;;;;;;16.65;11.88;;;;;;;7.06;100.00;102402.25;6280836;22;20103;-76
2022/11/30 03:23:08;;;;;;;17.20;11.70;;;;;;;7.05;100.00;102407.91;6281254;22;20407;-76
2022/11/30 03:25:34;;;;;;;16.95;12.00;;;;;;;7.01;100.00;102402.59;6279493;22;20020;-76
2022/11/30 03:28:02;;;;;;;16.20;11.90;;;;;;;6.96;100.00;102409.03;6281001;22;20099;-76
2022/11/30 03:30:28;;;;;;;19.67;11.95;;;;;;;6.96;100.00;102400.31;6280133;22;20122;-76
2022/11/30 03:32:54;;;;;;;16.08;11.52;;;;;;;6.95;100.00;102406.75;6280748;22;20055;-76
2022/11/30 03:35:21;;;;;;;13.82;11.52;;;;;;;6.91;100.00;102412.03;6252572;22;20071;-76
2022/11/30 03:37:47;;;;;;;15.02;11.25;;;;;;;6.91;100.00;102413.91;6281108;22;20016;-76
2022/11/30 03:40:14;;;;;;;15.93;11.25;;;;;;;6.89;100.00;102414.28;6279842;22;20020;-76
2022/11/30 03:42:42;;;;;;;15.05;11.70;;;;;;;6.89;100.00;102414.28;6280024;22;20019;-76
2022/11/30 03:45:09;;;;;;;19.65;11.65;;;;;;;6.89;100.00;102416.94;6281074;22;20458;-76
2022/11/30 03:47:36;;;;;;;16.63;10.93;;;;;;;6.89;100.00;102411.63;6280565;22;20012;-76
2022/11/30 03:50:03;;;;;;;20.55;11.20;;;;;;;6.90;100.00;102409.75;6280924;22;20398;-76
2022/11/30 03:52:29;;;;;;;16.15;11.43;;;;;;;6.90;100.00;102409.75;6280219;22;20016;-76
2022/11/30 03:54:55;;;;;;;16.90;11.32;;;;;;;6.89;100.00;102411.63;6280329;22;20438;-76
2022/11/30 03:57:22;;;;;;;15.50;11.32;;;;;;;6.88;100.00;102420.72;6280303;22;20016;-76
2022/11/30 03:59:48;;;;;;;16.77;11.90;;;;;;;6.89;100.00;102413.53;6280922;22;20083;-76
2022/11/30 04:02:15;;;;;;;14.98;10.57;;;;;;;6.86;100.00;102412.38;6280501;22;20040;-76
2022/11/30 04:04:41;;;;;;;20.77;11.75;;;;;;;6.82;100.00;102416.91;6280586;22;20016;-76
2022/11/30 04:07:07;;;;;;;21.17;11.85;;;;;;;6.81;100.00;102418.03;6280936;22;20012;-76
2022/11/30 04:09:34;;;;;;;17.50;11.77;;;;;;;6.79;100.00;102417.69;6279722;22;20020;-76
2022/11/30 04:12:00;;;;;;;16.45;11.77;;;;;;;6.81;100.00;102418.03;6280890;22;20044;-76
2022/11/30 04:14:27;;;;;;;16.73;11.82;;;;;;;6.82;100.00;102429.38;6280130;22;20079;-76
2022/11/30 04:16:54;;;;;;;19.35;12.40;;;;;;;6.81;100.00;102419.94;6281113;22;20031;-76
2022/11/30 04:19:20;;;;;;;16.70;11.98;;;;;;;6.79;100.00;102425.63;6280172;22;20088;-76
2022/11/30 04:21:46;;;;;;;20.33;11.02;;;;;;;6.75;100.00;102426.72;6280947;22;20483;-76
2022/11/30 04:24:13;;;;;;;16.02;11.98;;;;;;;6.73;100.00;102424.44;6279855;22;20024;-76
2022/11/30 04:26:40;;;;;;;15.43;11.63;;;;;;;6.73;100.00;102416.50;6280433;22;20032;-76
2022/11/30 04:29:06;;;;;;;17.35;10.98;;;;;;;6.72;100.00;102424.81;6281174;22;20031;-76
2022/11/30 04:31:33;;;;;;;16.65;12.13;;;;;;;6.72;100.00;102422.94;6279974;22;20012;-76
2022/11/30 04:33:59;;;;;;;15.10;11.45;;;;;;;6.67;100.00;102418.00;6280778;22;20020;-76
2022/11/30 04:36:26;;;;;;;19.98;13.05;;;;;;;6.64;100.00;102424.78;6280621;22;20121;-76
2022/11/30 04:38:52;;;;;;;17.17;12.45;;;;;;;6.64;100.00;102422.13;6280442;22;20495;-76
2022/11/30 04:41:19;;;;;;;16.42;11.60;;;;;;;6.65;100.00;102425.53;6279886;22;20027;-76
2022/11/30 04:43:45;;;;;;;17.60;11.02;;;;;;;6.66;100.00;102425.16;6280484;22;20095;-76
2022/11/30 04:46:12;;;;;;;15.52;11.05;;;;;;;6.67;100.00;102423.28;6280320;22;20066;-76
2022/11/30 04:48:38;;;;;;;18.35;11.68;;;;;;;6.64;100.00;102424.78;6280388;22;20040;-76
2022/11/30 04:51:07;;;;;;;20.40;11.85;;;;;;;6.63;100.00;102427.81;6280591;22;20096;-76
2022/11/30 04:53:36;;;;;;;14.80;11.57;;;;;;;6.60;100.00;102416.06;6279657;22;20403;-76
2022/11/30 04:56:08;;;;;;;21.80;11.95;;;;;;;6.58;100.00;102420.97;6280372;22;20051;-76
2022/11/30 04:58:35;;;;;;;15.45;11.85;;;;;;;6.58;100.00;102422.84;6279964;22;20092;-76
2022/11/30 05:01:01;;;;;;;16.92;11.82;;;;;;;6.56;100.00;102423.22;6280408;22;20048;-76
2022/11/30 05:03:28;;;;;;;14.43;10.73;;;;;;;6.55;100.00;102424.34;6279881;22;20091;-76
2022/11/30 05:05:54;;;;;;;21.88;11.48;;;;;;;6.55;100.00;102427.00;6280886;22;20543;-76
2022/11/30 05:08:21;;;;;;;23.15;11.65;;;;;;;6.57;100.00;102437.22;6279426;22;20016;-76
2022/11/30 05:10:54;;;;;;;20.38;11.27;;;;;;;6.57;100.00;102431.94;6280638;22;20016;-76
2022/11/30 05:13:23;;;;;;;17.58;11.05;;;;;;;6.57;100.00;102435.31;6252160;22;20366;-76
2022/11/30 05:15:49;;;;;;;13.75;10.55;;;;;;;6.56;100.00;102433.81;6280117;22;20103;-76
2022/11/30 05:18:16;;;;;;;16.33;10.90;;;;;;;6.53;100.00;102437.19;6280254;22;20105;-76
2022/11/30 05:20:50;;;;;;;14.98;10.70;;;;;;;6.53;100.00;102436.44;6279939;22;20027;-76
2022/11/30 05:23:16;;;;;;;15.30;10.10;;;;;;;6.50;100.00;102435.28;6280440;22;20513;-76
2022/11/30 05:25:44;;;;;;;14.82;10.27;;;;;;;6.44;100.00;102428.81;6252900;22;20098;-76
2022/11/30 05:28:11;;;;;;;13.15;9.95;;;;;;;6.38;100.00;102426.91;6280381;22;20016;-76
2022/11/30 05:30:39;;;;;;;12.68;9.90;;;;;;;6.34;100.00;102432.19;6279837;22;20047;-76
2022/11/30 05:33:06;;;;;;;16.48;10.45;;;;;;;6.35;100.00;102431.06;6280605;22;20016;-76
2022/11/30 05:35:33;;;;;;;20.08;10.68;;;;;;;6.35;100.00;102429.19;6278882;22;20504;-75
2022/11/30 05:37:59;;;;;;;13.73;10.80;;;;;;;6.35;100.00;102431.06;6280494;22;20480;-76
2022/11/30 05:40:27;;;;;;;17.45;10.65;;;;;;;6.37;100.00;102428.03;6279567;22;20022;-76
2022/11/30 05:42:55;;;;;;;18.92;11.23;;;;;;;6.35;100.00;102428.41;6279769;22;20047;-76
2022/11/30 05:45:22;;;;;;;17.80;11.73;;;;;;;6.33;100.00;102428.03;6279856;22;20042;-76
2022/11/30 05:47:49;;;;;;;16.98;11.75;;;;;;;6.33;100.00;102434.06;6280197;22;20095;-76
2022/11/30 05:50:16;;;;;;;16.70;11.05;;;;;;;6.34;100.00;102432.19;6279169;22;20508;-76
2022/11/30 05:52:43;;;;;;;18.63;12.13;;;;;;;6.33;100.00;102430.66;6252508;22;20024;-76
2022/11/30 05:55:10;;;;;;;17.70;10.98;;;;;;;6.31;100.00;102440.84;6280168;22;20095;-76
2022/11/30 05:57:38;;;;;;;16.38;10.88;;;;;;;6.31;100.00;102440.84;6280539;22;20074;-76
2022/11/30 06:00:08;;;;;;;15.52;11.27;;;;;;;6.29;100.00;102440.47;6281053;22;20468;-76
2022/11/30 06:02:37;;;;;;;16.33;11.38;;;;;;;6.26;100.00;102441.97;6281145;22;20027;-75
2022/11/30 06:05:04;;;;;;;17.38;11.57;;;;;;;6.24;100.00;102443.44;6281056;22;20046;-76
2022/11/30 06:07:31;;;;;;;18.40;11.20;;;;;;;6.20;100.00;102448.72;6280788;22;20017;-76
2022/11/30 06:09:58;;;;;;;18.27;11.60;;;;;;;6.19;100.00;102449.06;6281364;22;20016;-76
2022/11/30 06:12:24;;;;;;;15.35;10.75;;;;;;;6.16;100.00;102444.53;6280544;22;20068;-75
2022/11/30 06:14:51;;;;;;;16.85;10.60;;;;;;;6.13;100.00;102455.84;6281416;22;20016;-76
2022/11/30 06:17:17;;;;;;;18.33;10.98;;;;;;;6.09;100.00;102457.69;6281178;22;20016;-76
2022/11/30 06:19:43;;;;;;;15.10;10.90;;;;;;;6.02;100.00;102448.56;6280856;22;20080;-76
2022/11/30 06:22:10;;;;;;;13.73;10.95;;;;;;;5.98;100.00;102457.63;6281552;22;20450;-76
2022/11/30 06:24:37;;;;;;;16.20;10.52;;;;;;;5.89;100.00;102457.16;6280823;22;20020;-75
2022/11/30 06:27:03;;;;;;;13.85;10.27;;;;;;;5.85;100.00;102453.69;6253525;22;20095;-76
2022/11/30 06:29:29;;;;;;;15.02;10.48;;;;;;;5.77;100.00;102452.13;6280363;22;20066;-75
2022/11/30 06:31:56;;;;;;;17.05;10.65;;;;;;;5.69;100.00;102457.34;6281122;22;20052;-75
2022/11/30 06:34:22;;;;;;;15.43;10.85;;;;;;;5.65;100.00;102459.19;6252553;22;20027;-75
2022/11/30 06:36:49;;;;;;;15.82;11.13;;;;;;;5.61;100.00;102470.84;6281535;22;20437;-76
2022/11/30 06:39:15;;;;;;;14.45;10.30;;;;;;;5.55;100.00;102467.03;6253825;22;20251;-75
2022/11/30 06:41:42;;;;;;;13.98;10.55;;;;;;;5.48;100.00;102469.59;6280690;22;20052;-76
2022/11/30 06:44:09;;;;;;;16.38;10.48;;;;;;;5.46;100.00;102463.91;6280894;22;20016;-75
2022/11/30 06:46:36;;;;;;;18.30;11.35;;;;;;;5.37;100.00;102466.84;6280870;22;20019;-75
2022/11/30 06:49:02;;;;;;;16.83;10.32;;;;;;;5.32;100.00;102465.28;6280555;22;20091;-75
2022/11/30 06:51:29;;;;;;;13.18;10.43;;;;;;;5.27;100.00;102470.88;6280600;22;20020;-76
2022/11/30 06:53:55;;;;;;;13.45;10.18;;;;;;;5.26;100.00;102472.00;6281152;22;20039;-75
2022/11/30 06:56:21;;;;;;;20.05;10.77;;;;;;;5.23;100.00;102475.34;6280807;22;20087;-76
2022/11/30 06:58:48;;;;;;;16.02;10.32;;;;;;;5.17;100.00;102481.34;6281960;22;20050;-75
2022/11/30 07:01:14;;;;;;;13.65;9.48;;;;;;;5.11;100.00;102483.53;6281321;22;20043;-75
2022/11/30 07:03:41;;;;;;;19.92;10.55;;;;;;;5.06;100.00;102488.34;6253822;22;20083;-75
2022/11/30 07:06:11;;;;;;;16.55;9.80;;;;;;;5.02;100.00;102490.94;6281296;22;20031;-75
2022/11/30 07:08:38;;;;;;;11.48;9.35;;;;;;;4.99;100.00;102487.16;6280773;22;20135;-75
2022/11/30 07:11:06;;;;;;;10.60;8.95;;;;;;;4.97;100.00;102488.63;6280471;22;20468;-77
2022/11/30 07:13:32;;;;;;;9.68;8.60;;;;;;;4.95;100.00;102488.22;6280200;22;20087;-76
2022/11/30 07:16:03;;;;;;;13.60;9.32;;;;;;;4.93;100.00;102501.00;6281028;22;20009;-78
2022/11/30 07:18:30;;;;;;;12.15;9.07;;;;;;;4.94;100.00;102503.28;6280889;22;20324;-76
2022/11/30 07:20:59;;;;;;;11.50;8.18;;;;;;;4.91;100.00;102504.00;6281636;22;20048;-76
2022/11/30 07:26:20;;;;;;;14.80;10.60;;;;;;;4.97;100.00;102509.72;6281219;22;20116;-75
2022/11/30 07:28:53;;;;;;;12.80;9.80;;;;;;;4.97;100.00;102513.13;6281360;22;20461;-76
2022/11/30 07:31:22;;;;;;;14.65;9.95;;;;;;;4.98;100.00;102516.53;6280757;22;20405;-76
2022/11/30 07:33:50;;;;;;;12.48;8.88;;;;;;;4.97;100.00;102518.41;6281724;22;20016;-77
2022/11/30 07:36:18;;;;;;;19.73;13.13;;;;;;;4.99;100.00;102515.41;6281622;22;20075;-77
2022/11/30 07:38:46;;;;;;;21.60;14.13;;;;;;;5.00;100.00;102528.25;6281613;22;20019;-77
2022/11/30 07:41:12;;;;;;;27.83;17.08;;;;;;;5.02;100.00;102527.91;6281268;22;20038;-76
2022/11/30 07:43:39;;;;;;;21.75;13.90;;;;;;;5.01;100.00;102524.50;6254103;22;20095;-76
2022/11/30 07:46:06;;;;;;;23.63;14.70;;;;;;;5.01;100.00;102527.13;6281132;22;20012;-79
2022/11/30 07:48:34;;;;;;;21.85;16.65;;;;;;;5.02;100.00;102533.19;6281446;22;20012;-78
2022/11/30 07:51:02;;;;;;;26.48;16.40;;;;;;;5.05;100.00;102539.63;6281600;22;20023;-74
2022/11/30 07:53:30;;;;;;;16.13;12.10;;;;;;;5.05;100.00;102537.75;6281143;22;20020;-78
2022/11/30 07:56:08;;;;;;;14.02;11.32;;;;;;;5.09;100.00;102537.81;6281920;22;20156;-77
2022/11/30 07:58:35;;;;;;;12.05;8.32;;;;;;;5.09;100.00;102541.19;6281151;22;20012;-76
2022/11/30 08:01:07;;;;;;;13.80;8.43;;;;;;;5.10;100.00;102545.38;6280158;22;20571;-77
2022/11/30 08:03:35;;;;;;;10.30;8.45;;;;;;;5.14;100.00;102543.53;6279627;22;20019;-77
2022/11/30 08:06:11;;;;;;;13.85;8.70;;;;;;;5.15;100.00;102544.28;6281573;22;20040;-76
2022/11/30 08:08:40;;;;;;;11.82;8.30;;;;;;;5.17;100.00;102544.69;6281789;22;20020;-77
2022/11/30 08:11:08;;;;;;;11.07;8.43;;;;;;;5.19;100.00;102553.03;6281034;22;20028;-76
2022/11/30 08:13:35;;;;;;;12.52;8.52;;;;;;;5.20;100.00;102557.91;6281198;22;20505;-77
2022/11/30 08:16:04;;;;;;;10.20;7.93;;;;;;;5.21;100.00;102556.81;6280805;22;20048;-78
2022/11/30 08:18:31;;;;;;;26.98;9.18;;;;;;;5.20;100.00;102567.75;6281135;22;20020;-76
2022/11/30 08:20:59;;;;;;;99.10;16.48;;;;;;;5.17;100.00;102557.91;6280958;22;20350;-76
2022/11/30 08:23:35;;;;;;;54.88;14.27;;;;;;;5.13;100.00;102563.13;6281347;22;20079;-77
2022/11/30 08:26:06;;;;;;;17.27;9.38;;;;;;;5.10;100.00;102565.72;6281432;22;20012;-76
2022/11/30 08:28:36;;;;;;;14.90;9.70;;;;;;;5.06;100.00;102570.94;6281012;22;20027;-76
2022/11/30 08:31:09;;;;;;;18.27;10.30;;;;;;;5.05;100.00;102566.03;6280812;22;20016;-74
2022/11/30 08:33:36;;;;;;;17.63;9.85;;;;;;;5.06;100.00;102572.81;6281328;22;20480;-75
2022/11/30 08:36:10;;;;;;;16.60;10.75;;;;;;;5.13;100.00;102580.84;6280998;22;20401;-76
2022/11/30 08:38:37;;;;;;;27.52;10.75;;;;;;;5.20;100.00;102581.69;6281685;22;20012;-77
2022/11/30 08:41:06;;;;;;;29.45;11.32;;;;;;;5.29;100.00;102578.78;6281044;22;20044;-77
2022/11/30 08:43:33;;;;;;;28.05;10.80;;;;;;;5.36;100.00;102571.72;6280390;22;20406;-77
2022/11/30 08:46:02;;;;;;;29.50;11.70;;;;;;;5.43;100.00;102586.13;6280713;22;20095;-77
2022/11/30 08:48:46;;;;;;;22.90;11.82;;;;;;;5.47;100.00;102581.66;6281040;22;20066;-77
2022/11/30 08:51:16;;;;;;;24.25;14.00;;;;;;;5.49;100.00;102580.19;6280724;22;20086;-77
2022/11/30 08:53:43;;;;;;;22.75;12.27;;;;;;;5.48;100.00;102591.09;6281152;22;20012;-76
2022/11/30 08:56:22;;;;;;;24.70;12.80;;;;;;;5.52;100.00;102587.38;6281250;22;20016;-76
2022/11/30 08:58:49;;;;;;;18.15;11.95;;;;;;;5.56;100.00;102592.72;6280915;22;20112;-76
2022/11/30 09:01:21;;;;;;;20.35;12.85;;;;;;;5.58;100.00;102585.19;6280647;22;20424;-77
2022/11/30 09:03:55;;;;;;;19.58;12.50;;;;;;;5.65;100.00;102590.53;6229840;22;20522;-77
2022/11/30 09:06:25;;;;;;;22.48;12.65;;;;;;;5.71;100.00;102594.38;6280748;22;20012;-77
2022/11/30 09:08:57;;;;;;;19.27;13.07;;;;;;;5.78;100.00;102591.06;6281363;22;20074;-78
2022/11/30 09:11:29;;;;;;;21.10;13.48;;;;;;;5.83;100.00;102591.50;6280785;22;20095;-78
2022/11/30 09:13:58;;;;;;;24.50;13.98;;;;;;;5.91;100.00;102592.38;6280587;22;20450;-78
2022/11/30 09:16:25;;;;;;;63.38;29.08;;;;;;;5.96;100.00;102594.69;6280640;22;20082;-78
2022/11/30 09:18:52;;;;;;;32.58;18.30;;;;;;;6.01;100.00;102592.47;6280929;22;20047;-78
2022/11/30 09:21:21;;;;;;;28.90;17.35;;;;;;;6.07;100.00;102600.84;6253423;22;20021;-78
2022/11/30 09:23:49;;;;;;;25.88;15.15;;;;;;;6.10;100.00;102596.69;6281265;22;20017;-77
2022/11/30 09:26:19;;;;;;;23.98;14.45;;;;;;;6.11;100.00;102598.97;6253002;22;20048;-77
2022/11/30 09:28:46;;;;;;;22.17;13.82;;;;;;;6.13;100.00;102606.56;6280388;22;20012;-77
2022/11/30 09:31:16;;;;;;;28.10;14.95;;;;;;;6.17;100.00;102607.34;6280211;22;20149;-77
2022/11/30 09:33:43;;;;;;;21.38;13.60;;;;;;;6.20;100.00;102612.69;6280785;22;20020;-77
2022/11/30 09:36:12;;;;;;;28.83;15.25;;;;;;;6.26;100.00;102611.22;6282120;22;20017;-77
2022/11/30 09:38:41;;;;;;;28.50;15.98;;;;;;;6.28;100.00;102608.97;6282243;22;20025;-76
2022/11/30 09:41:25;;;;;;;23.15;15.75;;;;;;;6.30;100.00;102612.03;6281319;22;20026;-77
2022/11/30 09:43:51;;;;;;;26.33;14.85;;;;;;;6.30;100.00;102604.09;6280521;22;20047;-77
2022/11/30 09:46:26;;;;;;;23.77;15.27;;;;;;;6.32;100.00;102609.00;6281591;22;20032;-77
2022/11/30 09:49:00;;;;;;;27.05;17.27;;;;;;;6.32;100.00;102617.72;6281668;22;20012;-77
2022/11/30 09:51:44;;;;;;;25.80;16.35;;;;;;;6.37;100.00;102615.88;6281509;22;20020;-77
2022/11/30 09:54:18;;;;;;;24.63;16.15;;;;;;;6.43;100.00;102617.78;6281472;22;20023;-77
2022/11/30 09:56:45;;;;;;;22.73;15.38;;;;;;;6.48;100.00;102616.69;6281366;22;20016;-77
2022/11/30 09:59:25;;;;;;;26.95;16.60;;;;;;;6.51;100.00;102624.66;6281555;22;20087;-77
2022/11/30 10:01:52;;;;;;;24.40;17.15;;;;;;;6.61;100.00;102616.06;6281489;22;20432;-76
2022/11/30 10:04:27;;;;;;;27.23;17.80;;;;;;;6.78;100.00;102621.88;6281682;22;20019;-77
2022/11/30 10:07:06;;;;;;;26.15;16.55;;;;;;;6.92;100.00;102621.94;6282154;22;20074;-77
2022/11/30 10:09:47;;;;;;;23.10;16.48;;;;;;;6.91;100.00;102620.44;6281275;22;20020;-78
2022/11/30 10:13:13;;;;;;;24.80;17.35;;;;;;;6.83;100.00;102611.66;6280940;22;20044;-79
2022/11/30 10:15:53;;;;;;;26.40;17.13;;;;;;;6.88;100.00;102613.22;6277337;22;20016;-78
2022/11/30 10:18:39;;;;;;;25.77;16.63;;;;;;;6.89;100.00;102607.56;6281346;22;20066;-78
2022/11/30 10:21:43;;;;;;;26.80;17.85;;;;;;;6.90;100.00;102610.97;6254260;22;20082;-78
2022/11/30 10:24:36;;;;;;;25.58;17.33;;;;;;;6.90;100.00;102603.78;6281725;22;20098;-78
2022/11/30 10:27:16;;;;;;;25.98;17.05;;;;;;;6.92;100.00;102606.06;6281607;22;20465;-78
2022/11/30 10:29:42;;;;;;;27.13;17.85;;;;;;;6.95;100.00;102614.03;6281967;22;20012;-75
2022/11/30 10:32:18;;;;;;;25.25;17.92;;;;;;;6.99;100.00;102614.81;6281398;22;20016;-79
2022/11/30 10:34:50;;;;;;;27.30;17.92;;;;;;;7.05;100.00;102615.22;6281623;22;20066;-78
2022/11/30 10:37:34;;;;;;;25.08;17.17;;;;;;;7.08;100.00;102603.13;6281149;22;20155;-75
2022/11/30 10:40:09;;;;;;;27.27;16.52;;;;;;;7.07;100.00;102607.69;6280833;22;20019;-78
2022/11/30 10:43:03;;;;;;;22.45;17.13;;;;;;;7.15;100.00;102609.25;6281759;22;20063;-78
2022/11/30 10:45:32;;;;;;;29.10;17.40;;;;;;;7.25;100.00;102605.88;6281276;22;20040;-78
2022/11/30 10:48:06;;;;;;;32.92;18.38;;;;;;;7.32;100.00;102597.97;6281458;22;20016;-78
2022/11/30 10:50:33;;;;;;;48.58;20.15;;;;;;;7.40;100.00;102603.31;6281512;22;20083;-77
2022/11/30 10:53:00;;;;;;;33.60;19.80;;;;;;;7.49;100.00;102593.13;6281774;22;20040;-75
2022/11/30 10:55:34;;;;;;;27.52;18.90;;;;;;;7.59;100.00;102598.47;6280583;22;20044;-79
2022/11/30 10:58:09;;;;;;;25.85;17.15;;;;;;;7.66;100.00;102601.13;6281451;22;20406;-78
2022/11/30 11:00:36;;;;;;;119.38;68.25;;;;;;;7.69;100.00;102595.06;6281664;22;20016;-77
2022/11/30 11:03:21;;;;;;;34.55;21.05;;;;;;;7.76;99.58;102591.69;6281234;22;20449;-77
2022/11/30 11:06:02;;;;;;;28.60;18.85;;;;;;;7.83;98.99;102593.59;6281519;22;20020;-77
2022/11/30 11:08:28;;;;;;;24.00;16.48;;;;;;;7.78;96.09;102588.66;6281424;22;20050;-79
2022/11/30 11:10:55;;;;;;;24.77;17.95;;;;;;;7.76;96.50;102586.38;6280919;22;20517;-79
2022/11/30 11:13:41;;;;;;;30.13;17.00;;;;;;;7.82;97.15;102587.53;6281254;22;20040;-78
2022/11/30 11:16:12;;;;;;;27.55;17.23;;;;;;;7.81;96.69;102588.69;6281414;22;20070;-78
2022/11/30 11:18:56;;;;;;;25.20;17.40;;;;;;;7.84;96.78;102590.59;6281662;22;20012;-78
2022/11/30 11:21:23;;;;;;;28.38;17.17;;;;;;;7.88;95.68;102585.28;6281309;22;20067;-78
2022/11/30 11:23:53;;;;;;;25.25;16.50;;;;;;;7.94;95.54;102587.19;6281288;22;20016;-78